createdAt,value
2022-12-08T00:02:06.401Z,4.47
2022-12-08T00:04:55.122Z,4.13
2022-12-08T00:07:42.847Z,4.30
2022-12-08T00:10:40.248Z,4.80
2022-12-08T00:13:00.096Z,3.73
2022-12-08T00:15:28.722Z,4.10
2022-12-08T00:17:57.381Z,4.50
2022-12-08T00:20:25.934Z,4.93
2022-12-08T00:22:55.845Z,4.77
2022-12-08T00:25:24.387Z,5.00
2022-12-08T00:27:52.955Z,4.87
2022-12-08T00:30:21.590Z,4.73
2022-12-08T00:32:50.230Z,5.77
2022-12-08T00:35:18.853Z,4.77
2022-12-08T00:37:47.477Z,4.97
2022-12-08T00:40:17.262Z,4.67
2022-12-08T00:42:47.258Z,4.77
2022-12-08T00:45:16.207Z,4.63
2022-12-08T00:47:44.812Z,4.60
2022-12-08T00:50:13.484Z,5.03
2022-12-08T00:52:42.052Z,4.80
2022-12-08T00:55:11.034Z,4.33
2022-12-08T00:57:39.567Z,4.43
2022-12-08T01:00:10.200Z,4.43
2022-12-08T01:02:38.791Z,5.37
2022-12-08T01:05:07.836Z,4.70
2022-12-08T01:07:36.423Z,3.87
2022-12-08T01:10:05.562Z,4.30
2022-12-08T01:12:34.276Z,4.63
2022-12-08T01:15:03.097Z,3.70
2022-12-08T01:17:33.140Z,4.33
2022-12-08T01:20:03.387Z,4.50
2022-12-08T01:22:32.194Z,3.77
2022-12-08T01:25:00.761Z,3.80
2022-12-08T01:27:29.287Z,4.60
2022-12-08T01:29:57.874Z,4.00
2022-12-08T01:32:26.543Z,4.53
2022-12-08T01:34:56.490Z,4.43
2022-12-08T01:37:25.134Z,4.37
2022-12-08T01:39:53.746Z,4.60
2022-12-08T01:42:23.320Z,4.50
2022-12-08T01:44:56.006Z,4.40
2022-12-08T01:47:25.808Z,4.77
2022-12-08T01:49:54.445Z,4.20
2022-12-08T01:52:26.897Z,4.40
2022-12-08T01:54:56.917Z,3.83
2022-12-08T01:57:27.487Z,4.33
2022-12-08T01:59:58.236Z,4.30
2022-12-08T02:02:29.414Z,4.03
2022-12-08T02:04:58.028Z,4.00
2022-12-08T02:07:27.984Z,4.37
2022-12-08T02:09:56.666Z,4.27
2022-12-08T02:12:25.263Z,4.00
2022-12-08T02:14:53.875Z,3.93
2022-12-08T02:17:29.527Z,3.80
2022-12-08T02:20:08.801Z,3.50
2022-12-08T02:22:42.299Z,4.10
2022-12-08T02:25:16.663Z,4.03
2022-12-08T02:27:49.095Z,4.17
2022-12-08T02:30:21.721Z,3.50
2022-12-08T02:33:09.446Z,4.13
2022-12-08T02:35:41.105Z,3.90
2022-12-08T02:38:12.542Z,4.63
2022-12-08T02:40:43.321Z,4.37
2022-12-08T02:43:16.237Z,4.47
2022-12-08T02:45:47.245Z,4.60
2022-12-08T02:48:16.052Z,4.90
2022-12-08T02:50:46.020Z,4.97
2022-12-08T02:55:47.561Z,4.50
2022-12-08T02:58:31.837Z,5.20
2022-12-08T03:01:06.328Z,4.80
2022-12-08T03:03:40.816Z,5.37
2022-12-08T03:06:19.178Z,4.87
2022-12-08T03:08:50.889Z,5.70
2022-12-08T03:11:22.069Z,6.37
2022-12-08T03:13:53.182Z,5.97
2022-12-08T03:16:23.423Z,6.20
2022-12-08T03:18:54.723Z,7.33
2022-12-08T03:21:24.732Z,7.93
2022-12-08T03:23:56.731Z,8.10
2022-12-08T03:26:27.583Z,8.13
2022-12-08T03:28:56.323Z,8.00
2022-12-08T03:31:26.859Z,8.17
2022-12-08T03:33:56.454Z,8.60
2022-12-08T03:36:27.124Z,8.50
2022-12-08T03:38:56.003Z,8.87
2022-12-08T03:41:24.787Z,8.80
2022-12-08T03:43:54.255Z,9.13
2022-12-08T03:48:51.303Z,9.00
2022-12-08T03:51:20.347Z,9.33
2022-12-08T03:53:50.621Z,9.13
2022-12-08T03:56:23.682Z,8.50
2022-12-08T03:58:52.577Z,8.80
2022-12-08T04:01:21.271Z,8.87
2022-12-08T04:03:50.393Z,8.93
2022-12-08T04:06:19.422Z,9.63
2022-12-08T04:08:48.032Z,8.80
2022-12-08T04:11:18.042Z,8.93
2022-12-08T04:13:47.006Z,8.47
2022-12-08T04:16:17.381Z,8.90
2022-12-08T04:18:46.271Z,8.87
2022-12-08T04:21:15.119Z,8.97
2022-12-08T04:23:44.000Z,8.73
2022-12-08T04:26:13.235Z,9.10
2022-12-08T04:28:43.183Z,9.50
2022-12-08T04:31:12.282Z,8.70
2022-12-08T04:33:41.211Z,9.90
2022-12-08T04:36:10.442Z,9.37
2022-12-08T04:38:39.041Z,8.43
2022-12-08T04:41:07.649Z,8.27
2022-12-08T04:43:36.957Z,8.20
2022-12-08T04:46:09.118Z,8.60
2022-12-08T04:48:38.998Z,8.50
2022-12-08T04:51:07.999Z,7.80
2022-12-08T04:53:36.550Z,8.63
2022-12-08T04:56:05.291Z,8.37
2022-12-08T04:58:34.141Z,8.47
2022-12-08T05:01:02.768Z,8.50
2022-12-08T05:03:32.723Z,7.73
2022-12-08T05:06:02.042Z,8.07
2022-12-08T05:08:30.787Z,8.27
2022-12-08T05:11:03.756Z,7.83
2022-12-08T05:13:32.384Z,7.63
2022-12-08T05:16:04.596Z,6.93
2022-12-08T05:18:34.887Z,8.37
2022-12-08T05:21:03.481Z,7.33
2022-12-08T05:23:32.028Z,7.27
2022-12-08T05:26:00.595Z,7.27
2022-12-08T05:28:44.647Z,7.60
2022-12-08T05:31:13.471Z,8.13
2022-12-08T05:33:43.918Z,7.63
2022-12-08T05:36:13.618Z,7.90
2022-12-08T05:38:42.496Z,7.27
2022-12-08T05:41:11.709Z,7.37
2022-12-08T05:43:40.315Z,8.27
2022-12-08T05:46:09.783Z,7.17
2022-12-08T05:48:38.866Z,8.07
2022-12-08T05:51:09.621Z,7.93
2022-12-08T05:53:38.192Z,7.87
2022-12-08T05:56:06.851Z,7.57
2022-12-08T05:58:35.419Z,8.20
2022-12-08T06:01:04.001Z,8.20
2022-12-08T06:03:32.668Z,8.13
2022-12-08T06:06:01.343Z,8.87
2022-12-08T06:08:31.420Z,7.93
2022-12-08T06:11:00.040Z,7.90
2022-12-08T06:13:28.655Z,7.73
2022-12-08T06:15:57.241Z,7.43
2022-12-08T06:18:31.116Z,7.50
2022-12-08T06:21:04.951Z,7.13
2022-12-08T06:23:34.870Z,8.20
2022-12-08T06:26:03.496Z,7.70
2022-12-08T06:28:32.165Z,7.47
2022-12-08T06:31:01.270Z,7.27
2022-12-08T06:33:29.866Z,7.70
2022-12-08T06:36:00.110Z,7.00
2022-12-08T06:38:28.956Z,7.27
2022-12-08T06:40:59.714Z,6.50
2022-12-08T06:43:28.803Z,6.50
2022-12-08T06:45:57.533Z,6.70
2022-12-08T06:48:26.159Z,6.43
2022-12-08T06:50:54.765Z,6.80
2022-12-08T06:53:23.367Z,5.87
2022-12-08T06:56:01.097Z,5.97
2022-12-08T06:58:31.190Z,6.20
2022-12-08T07:01:06.949Z,6.22
2022-12-08T07:03:35.646Z,6.77
2022-12-08T07:06:04.722Z,6.57
2022-12-08T07:08:33.654Z,5.97
2022-12-08T07:11:07.524Z,5.90
2022-12-08T07:13:37.475Z,6.27
2022-12-08T07:16:07.147Z,5.40
2022-12-08T07:18:35.792Z,5.53
2022-12-08T07:21:05.321Z,6.03
2022-12-08T07:23:34.006Z,6.03
2022-12-08T07:26:03.404Z,5.80
2022-12-08T07:28:32.350Z,5.63
2022-12-08T07:31:02.482Z,5.60
2022-12-08T07:33:31.403Z,5.47
2022-12-08T07:36:01.351Z,5.83
2022-12-08T07:38:30.324Z,5.20
2022-12-08T07:40:59.015Z,5.73
2022-12-08T07:43:27.740Z,5.20
2022-12-08T07:45:56.394Z,5.40
2022-12-08T07:48:26.331Z,5.43
2022-12-08T07:51:01.503Z,5.70
2022-12-08T07:53:30.172Z,4.97
2022-12-08T07:55:59.188Z,5.33
2022-12-08T07:58:28.129Z,5.60
2022-12-08T08:00:57.012Z,5.83
2022-12-08T08:03:27.035Z,5.63
2022-12-08T08:05:55.652Z,6.10
2022-12-08T08:08:24.271Z,5.33
2022-12-08T08:10:52.915Z,5.60
2022-12-08T08:13:21.475Z,5.03
2022-12-08T08:15:50.198Z,5.27
2022-12-08T08:18:18.847Z,4.87
2022-12-08T08:20:48.871Z,4.93
2022-12-08T08:23:17.432Z,4.33
2022-12-08T08:25:45.988Z,4.40
2022-12-08T08:28:15.162Z,4.37
2022-12-08T08:30:43.814Z,4.23
2022-12-08T08:33:12.497Z,3.83
2022-12-08T08:35:42.243Z,3.80
2022-12-08T08:38:12.218Z,3.60
2022-12-08T08:40:40.916Z,3.93
2022-12-08T08:43:09.867Z,4.37
2022-12-08T08:45:38.472Z,4.50
2022-12-08T08:48:07.307Z,5.17
2022-12-08T08:50:37.755Z,5.90
2022-12-08T08:53:06.515Z,5.67
2022-12-08T08:55:36.458Z,6.17
2022-12-08T08:58:05.023Z,5.67
2022-12-08T09:00:33.678Z,6.07
2022-12-08T09:03:02.307Z,6.17
2022-12-08T09:05:30.890Z,6.97
2022-12-08T09:07:59.514Z,6.33
2022-12-08T09:10:28.829Z,6.43
2022-12-08T09:12:58.846Z,7.13
2022-12-08T09:15:27.479Z,6.77
2022-12-08T09:17:56.094Z,6.93
2022-12-08T09:20:24.873Z,7.10
2022-12-08T09:22:53.550Z,6.47
2022-12-08T09:25:22.151Z,6.40
2022-12-08T09:27:50.791Z,6.90
2022-12-08T09:30:20.708Z,6.50
2022-12-08T09:32:49.278Z,6.60
2022-12-08T09:35:18.025Z,6.33
2022-12-08T09:37:46.591Z,5.60
2022-12-08T09:40:17.609Z,5.63
2022-12-08T09:42:49.371Z,5.57
2022-12-08T09:45:19.079Z,5.17
2022-12-08T09:47:50.625Z,5.23
2022-12-08T09:50:21.610Z,4.90
2022-12-08T09:52:54.878Z,4.63
2022-12-08T09:55:25.367Z,5.33
2022-12-08T09:57:58.511Z,4.87
2022-12-08T10:00:27.215Z,5.33
2022-12-08T10:02:57.355Z,4.60
2022-12-08T10:05:26.807Z,4.80
2022-12-08T10:08:00.256Z,5.13
2022-12-08T10:10:35.675Z,4.57
2022-12-08T10:13:08.281Z,5.30
2022-12-08T10:15:43.503Z,5.17
2022-12-08T10:18:15.279Z,4.63
2022-12-08T10:20:44.752Z,4.97
2022-12-08T10:23:20.552Z,5.10
2022-12-08T10:25:50.186Z,4.43
2022-12-08T10:28:18.739Z,4.73
2022-12-08T10:30:54.124Z,5.27
2022-12-08T10:33:24.689Z,5.30
2022-12-08T10:35:54.283Z,4.70
2022-12-08T10:38:24.287Z,4.80
2022-12-08T10:40:53.919Z,4.70
2022-12-08T10:43:24.182Z,4.13
2022-12-08T10:45:53.096Z,4.30
2022-12-08T10:48:23.018Z,4.93
2022-12-08T10:50:57.227Z,4.90
2022-12-08T10:53:26.493Z,4.00
2022-12-08T10:56:07.383Z,4.03
2022-12-08T10:58:36.976Z,4.20
2022-12-08T11:01:08.000Z,4.30
2022-12-08T11:03:37.815Z,4.40
2022-12-08T11:06:14.535Z,4.20
2022-12-08T11:08:48.201Z,3.90
2022-12-08T11:11:17.093Z,4.00
2022-12-08T11:13:45.807Z,3.67
2022-12-08T11:16:16.006Z,3.50
2022-12-08T11:18:46.912Z,4.37
2022-12-08T11:21:17.936Z,4.00
2022-12-08T11:23:48.992Z,4.20
2022-12-08T11:26:21.781Z,4.53
2022-12-08T11:28:50.410Z,4.20
2022-12-08T11:31:26.740Z,4.03
2022-12-08T11:33:55.364Z,3.73
2022-12-08T11:36:27.323Z,3.93
2022-12-08T11:38:58.188Z,4.00
2022-12-08T11:41:30.135Z,3.80
2022-12-08T11:44:03.833Z,3.80
2022-12-08T11:46:35.085Z,4.00
2022-12-08T11:49:07.047Z,4.00
2022-12-08T11:51:39.508Z,3.87
2022-12-08T11:54:14.311Z,5.20
2022-12-08T11:56:44.472Z,3.60
2022-12-08T11:59:17.648Z,3.33
2022-12-08T12:01:46.380Z,3.17
2022-12-08T12:04:20.363Z,3.27
2022-12-08T12:07:01.637Z,3.50
2022-12-08T12:09:36.618Z,3.90
2022-12-08T12:12:16.873Z,3.57
2022-12-08T12:14:51.367Z,3.13
2022-12-08T12:17:29.159Z,3.20
2022-12-08T12:20:01.122Z,3.37
2022-12-08T12:22:34.692Z,3.63
2022-12-08T12:25:04.156Z,3.20
2022-12-08T12:27:36.109Z,3.37
2022-12-08T12:30:06.635Z,3.43
2022-12-08T12:32:42.507Z,3.03
2022-12-08T12:35:16.068Z,3.20
2022-12-08T12:37:46.049Z,3.20
2022-12-08T12:40:18.851Z,3.23
2022-12-08T12:42:49.081Z,3.13
2022-12-08T12:45:29.278Z,3.07
2022-12-08T12:48:23.282Z,2.57
2022-12-08T12:50:52.430Z,3.37
2022-12-08T12:53:39.655Z,3.00
2022-12-08T12:56:12.424Z,2.90
2022-12-08T12:58:42.561Z,2.80
2022-12-08T13:01:29.781Z,2.70
2022-12-08T13:04:05.817Z,2.70
2022-12-08T13:06:36.821Z,2.40
2022-12-08T13:09:07.103Z,3.60
2022-12-08T13:11:48.589Z,2.80
2022-12-08T13:14:29.322Z,2.80
2022-12-08T13:16:59.375Z,3.00
2022-12-08T13:19:28.323Z,2.80
2022-12-08T13:21:59.103Z,2.70
2022-12-08T13:24:32.141Z,3.27
2022-12-08T13:27:19.247Z,2.60
2022-12-08T13:30:09.305Z,2.70
2022-12-08T13:33:17.243Z,2.50
2022-12-08T13:35:43.971Z,2.77
2022-12-08T13:38:14.782Z,2.90
2022-12-08T13:40:43.704Z,2.63
2022-12-08T13:43:17.007Z,2.67
2022-12-08T13:46:52.298Z,2.50
2022-12-08T13:50:15.613Z,2.80
2022-12-08T13:55:19.703Z,2.33
2022-12-08T13:57:23.513Z,2.27
2022-12-08T13:59:52.104Z,2.53
2022-12-08T14:02:26.177Z,2.40
2022-12-08T14:07:45.223Z,2.67
2022-12-08T14:10:17.907Z,2.30
2022-12-08T14:12:48.479Z,2.13
2022-12-08T14:15:17.583Z,2.37
2022-12-08T14:17:53.936Z,2.60
2022-12-08T14:20:25.930Z,2.57
2022-12-08T14:22:54.897Z,2.87
2022-12-08T14:25:24.447Z,2.40
2022-12-08T14:27:58.243Z,2.73
2022-12-08T14:30:28.020Z,2.17
2022-12-08T14:32:59.354Z,2.60
2022-12-08T14:35:30.525Z,2.30
2022-12-08T14:38:00.184Z,2.80
2022-12-08T14:40:31.193Z,2.23
2022-12-08T14:43:07.969Z,2.63
2022-12-08T14:45:37.364Z,3.30
2022-12-08T14:48:21.197Z,2.50
2022-12-08T14:50:59.124Z,2.50
2022-12-08T14:53:27.901Z,2.10
2022-12-08T14:55:56.606Z,2.33
2022-12-08T14:58:28.239Z,2.20
2022-12-08T15:00:58.420Z,2.37
2022-12-08T15:03:28.291Z,2.13
2022-12-08T15:06:00.090Z,2.10
2022-12-08T15:08:28.811Z,1.90
2022-12-08T15:11:19.519Z,2.27
2022-12-08T15:13:49.163Z,2.47
2022-12-08T15:16:25.801Z,2.00
2022-12-08T15:19:03.163Z,2.07
2022-12-08T15:21:35.402Z,2.13
2022-12-08T15:24:04.149Z,2.50
2022-12-08T15:26:35.341Z,2.20
2022-12-08T15:29:11.855Z,2.37
2022-12-08T15:31:40.561Z,2.63
2022-12-08T15:34:09.173Z,2.50
2022-12-08T15:36:40.038Z,2.53
2022-12-08T15:39:13.467Z,2.93
2022-12-08T15:41:42.013Z,2.77
2022-12-08T15:44:11.166Z,2.83
2022-12-08T15:46:39.805Z,3.47
2022-12-08T15:49:08.448Z,3.27
2022-12-08T15:51:37.376Z,2.70
2022-12-08T15:54:07.417Z,2.93
2022-12-08T15:56:41.208Z,3.40
2022-12-08T15:59:25.859Z,3.00
2022-12-08T16:01:54.651Z,3.30
2022-12-08T16:07:21.719Z,3.10
2022-12-08T16:09:52.329Z,3.30
2022-12-08T16:18:17.610Z,3.73
2022-12-08T16:23:42.782Z,3.47
2022-12-08T16:27:28.423Z,3.40
2022-12-08T16:29:03.090Z,3.00
2022-12-08T16:31:31.761Z,4.30
2022-12-08T16:34:00.409Z,3.63
2022-12-08T16:36:29.018Z,3.37
2022-12-08T16:38:57.572Z,3.40
2022-12-08T16:41:45.424Z,3.50
2022-12-08T16:44:14.025Z,4.20
2022-12-08T16:46:42.645Z,3.90
2022-12-08T16:49:11.424Z,3.73
2022-12-08T16:51:40.114Z,4.30
2022-12-08T16:54:08.653Z,4.03
2022-12-08T16:56:38.599Z,4.17
2022-12-08T16:59:07.150Z,3.97
2022-12-08T17:01:35.964Z,4.27
2022-12-08T17:04:30.389Z,4.10
2022-12-08T17:06:53.349Z,4.10
2022-12-08T17:09:21.998Z,4.23
2022-12-08T17:11:51.932Z,4.40
2022-12-08T17:14:20.510Z,4.53
2022-12-08T17:16:49.103Z,4.93
2022-12-08T17:19:17.663Z,4.90
2022-12-08T17:21:46.201Z,4.63
2022-12-08T17:24:17.232Z,5.03
2022-12-08T17:26:48.876Z,4.50
2022-12-08T17:29:19.106Z,5.10
2022-12-08T17:31:47.808Z,4.20
2022-12-08T17:34:16.628Z,4.23
2022-12-08T17:36:45.347Z,4.27
2022-12-08T17:39:18.398Z,5.17
2022-12-08T17:41:47.908Z,4.90
2022-12-08T17:44:17.278Z,4.10
2022-12-08T17:46:52.506Z,4.13
2022-12-08T17:49:22.584Z,4.17
2022-12-08T17:51:52.169Z,4.40
2022-12-08T17:54:21.300Z,4.20
2022-12-08T17:56:49.868Z,4.50
2022-12-08T17:59:18.975Z,4.47
2022-12-08T18:01:48.926Z,4.67
2022-12-08T18:04:17.518Z,4.40
2022-12-08T18:06:46.377Z,4.57
2022-12-08T18:09:15.295Z,3.73
2022-12-08T18:11:44.520Z,4.33
2022-12-08T18:14:14.191Z,4.10
2022-12-08T18:16:44.252Z,4.10
2022-12-08T18:19:15.056Z,4.00
2022-12-08T18:21:44.044Z,3.77
2022-12-08T18:24:17.013Z,3.87
2022-12-08T18:26:45.617Z,4.17
2022-12-08T18:29:14.192Z,3.90
2022-12-08T18:31:42.743Z,3.87
2022-12-08T18:34:11.539Z,4.07
2022-12-08T18:36:41.506Z,4.47
2022-12-08T18:39:17.724Z,3.60
2022-12-08T18:41:46.306Z,3.97
2022-12-08T18:44:14.863Z,3.63
2022-12-08T18:46:43.515Z,3.70
2022-12-08T18:49:13.249Z,3.87
2022-12-08T18:51:43.506Z,3.97
2022-12-08T18:54:12.600Z,4.00
2022-12-08T18:56:41.224Z,4.00
2022-12-08T18:59:10.769Z,3.97
2022-12-08T19:01:40.406Z,3.73
2022-12-08T19:06:59.820Z,4.03
2022-12-08T19:09:28.969Z,3.60
2022-12-08T19:11:57.608Z,4.10
2022-12-08T19:14:30.267Z,4.13
2022-12-08T19:16:59.160Z,3.80
2022-12-08T19:19:27.749Z,3.40
2022-12-08T19:21:56.417Z,4.10
2022-12-08T19:24:26.371Z,4.17
2022-12-08T19:26:55.139Z,4.00
2022-12-08T19:29:23.706Z,3.57
2022-12-08T19:31:52.275Z,4.07
2022-12-08T19:34:20.991Z,4.17
2022-12-08T19:36:49.740Z,3.70
2022-12-08T19:39:36.604Z,3.60
2022-12-08T19:42:25.942Z,3.80
2022-12-08T19:44:54.584Z,3.23
2022-12-08T19:47:24.197Z,3.63
2022-12-08T19:49:53.804Z,4.03
2022-12-08T19:52:22.755Z,3.43
2022-12-08T19:54:51.358Z,3.77
2022-12-08T19:57:21.313Z,3.90
2022-12-08T19:59:56.045Z,3.60
2022-12-08T20:02:25.232Z,3.77
2022-12-08T20:04:53.908Z,4.20
2022-12-08T20:07:22.435Z,4.10
2022-12-08T20:09:51.005Z,4.00
2022-12-08T20:12:20.936Z,4.10
2022-12-08T20:14:49.575Z,4.07
2022-12-08T20:17:18.099Z,4.40
2022-12-08T20:19:46.704Z,4.37
2022-12-08T20:22:15.293Z,4.20
2022-12-08T20:24:43.935Z,4.17
2022-12-08T20:27:12.502Z,3.93
2022-12-08T20:29:42.435Z,4.27
2022-12-08T20:32:11.051Z,4.10
2022-12-08T20:34:39.690Z,4.37
2022-12-08T20:37:08.359Z,4.40
2022-12-08T20:39:37.014Z,4.13
2022-12-08T20:42:05.815Z,4.20
2022-12-08T20:44:34.418Z,4.17
2022-12-08T20:47:04.376Z,4.40
2022-12-08T20:49:34.895Z,4.13
2022-12-08T20:52:03.890Z,4.70
2022-12-08T20:54:32.491Z,4.47
2022-12-08T20:57:01.619Z,5.00
2022-12-08T20:59:30.449Z,5.00
2022-12-08T21:02:00.311Z,4.73
2022-12-08T21:04:30.393Z,4.00
2022-12-08T21:07:00.587Z,4.67
2022-12-08T21:09:29.411Z,4.37
2022-12-08T21:11:58.084Z,4.87
2022-12-08T21:14:26.720Z,4.80
2022-12-08T21:16:56.192Z,4.20
2022-12-08T21:19:24.951Z,4.63
2022-12-08T21:21:55.154Z,4.70
2022-12-08T21:24:26.396Z,4.80
2022-12-08T21:26:57.464Z,5.07
2022-12-08T21:29:26.173Z,5.20
2022-12-08T21:31:56.163Z,4.90
2022-12-08T21:34:24.938Z,4.70
2022-12-08T21:36:55.021Z,4.93
2022-12-08T21:39:23.750Z,4.63
2022-12-08T21:42:10.497Z,5.07
2022-12-08T21:44:39.259Z,4.73
2022-12-08T21:47:08.347Z,4.53
2022-12-08T21:49:37.058Z,4.37
2022-12-08T21:52:07.261Z,4.63
2022-12-08T21:54:35.885Z,5.10
2022-12-08T21:57:04.578Z,4.80
2022-12-08T21:59:33.193Z,5.03
2022-12-08T22:02:02.158Z,4.60
2022-12-08T22:04:31.153Z,4.90
2022-12-08T22:06:59.958Z,4.73
2022-12-08T22:09:30.107Z,4.90
2022-12-08T22:11:58.771Z,5.17
2022-12-08T22:14:27.504Z,5.10
2022-12-08T22:16:56.209Z,5.47
2022-12-08T22:19:25.413Z,4.97
2022-12-08T22:21:54.681Z,4.40
2022-12-08T22:24:23.385Z,4.60
2022-12-08T22:26:53.652Z,4.97
2022-12-08T22:29:22.216Z,4.53
2022-12-08T22:31:50.802Z,4.87
2022-12-08T22:34:19.543Z,4.57
2022-12-08T22:36:48.735Z,4.70
2022-12-08T22:39:17.302Z,4.70
2022-12-08T22:41:45.905Z,5.80
2022-12-08T22:44:16.422Z,4.80
2022-12-08T22:46:45.290Z,4.33
2022-12-08T22:49:13.992Z,4.20
2022-12-08T22:51:42.733Z,4.37
2022-12-08T22:54:11.795Z,4.63
2022-12-08T22:56:40.366Z,4.77
2022-12-08T22:59:08.930Z,4.77
2022-12-08T23:01:38.942Z,4.53
2022-12-08T23:04:11.332Z,4.43
2022-12-08T23:06:42.833Z,4.30
2022-12-08T23:09:12.079Z,4.20
2022-12-08T23:11:40.796Z,4.40
2022-12-08T23:14:09.326Z,4.43
2022-12-08T23:16:39.467Z,4.40
2022-12-08T23:19:08.614Z,4.50
2022-12-08T23:21:37.328Z,4.93
2022-12-08T23:24:06.108Z,4.93
2022-12-08T23:26:35.320Z,5.43
2022-12-08T23:29:04.464Z,5.57
2022-12-08T23:31:33.426Z,5.50
2022-12-08T23:34:03.674Z,5.90
2022-12-08T23:36:32.516Z,5.50
2022-12-08T23:39:01.348Z,5.20
2022-12-08T23:41:29.978Z,5.57
2022-12-08T23:43:58.533Z,5.77
2022-12-08T23:46:27.378Z,5.43
2022-12-08T23:48:56.064Z,6.00
2022-12-08T23:51:26.060Z,5.73
2022-12-08T23:53:54.735Z,5.93
2022-12-08T23:56:28.336Z,5.80
2022-12-08T23:58:58.931Z,5.70
